createdAt,value
2023-02-01T00:03:51.897Z,98900.34
2023-02-01T00:08:55.718Z,98897.94
2023-02-01T00:13:59.058Z,98891.47
2023-02-01T00:19:05.276Z,98885.50
2023-02-01T00:24:08.857Z,98897.50
2023-02-01T00:29:15.038Z,98899.47
2023-02-01T00:34:19.758Z,98888.63
2023-02-01T00:39:22.679Z,98894.59
2023-02-01T00:44:25.657Z,98893.28
2023-02-01T00:49:30.367Z,98896.97
2023-02-01T00:54:33.532Z,98898.19
2023-02-01T00:59:36.482Z,98903.38
2023-02-01T01:04:40.727Z,98903.59
2023-02-01T01:09:43.622Z,98911.25
2023-02-01T01:14:47.781Z,98903.69
2023-02-01T01:19:52.126Z,98898.19
2023-02-01T01:24:55.095Z,98897.56
2023-02-01T01:29:58.029Z,98889.41
2023-02-01T01:35:02.576Z,98890.09
2023-02-01T01:40:06.740Z,98889.31
2023-02-01T01:45:22.627Z,98880.72
2023-02-01T01:50:31.103Z,98875.25
2023-02-01T01:55:37.541Z,98890.53
2023-02-01T02:00:41.080Z,98864.75
2023-02-01T02:05:46.852Z,98873.53
2023-02-01T02:11:02.645Z,98877.25
2023-02-01T02:16:24.535Z,98867.19
2023-02-01T02:21:49.244Z,98877.72
2023-02-01T02:27:26.056Z,98862.97
2023-02-01T02:32:49.621Z,98868.84
2023-02-01T02:38:04.182Z,98864.66
2023-02-01T02:43:31.171Z,98856.34
2023-02-01T02:48:40.901Z,98856.50
2023-02-01T02:54:10.968Z,98863.97
2023-02-01T02:59:35.289Z,98846.19
2023-02-01T03:04:38.583Z,98851.38
2023-02-01T03:09:46.704Z,98854.28
2023-02-01T03:14:54.647Z,98854.97
2023-02-01T03:20:01.208Z,98856.41
2023-02-01T03:25:11.874Z,98861.69
2023-02-01T03:30:22.402Z,98855.72
2023-02-01T03:35:31.369Z,98852.94
2023-02-01T03:40:38.777Z,98852.66
2023-02-01T03:45:46.192Z,98859.47
2023-02-01T03:50:54.215Z,98861.53
2023-02-01T03:55:59.836Z,98844.63
2023-02-01T04:01:02.960Z,98850.00
2023-02-01T04:06:09.031Z,98845.44
2023-02-01T04:11:14.119Z,98845.44
2023-02-01T04:16:17.144Z,98832.38
2023-02-01T04:21:20.106Z,98833.53
2023-02-01T04:26:24.391Z,98829.78
2023-02-01T04:31:28.170Z,98814.75
2023-02-01T04:36:31.199Z,98805.69
2023-02-01T04:41:35.504Z,98803.75
2023-02-01T04:46:38.390Z,98801.06
2023-02-01T04:51:42.045Z,98803.38
2023-02-01T04:56:46.312Z,98789.78
2023-02-01T05:01:49.213Z,98777.97
2023-02-01T05:06:52.196Z,98763.66
2023-02-01T05:12:13.848Z,98755.59
2023-02-01T05:17:16.764Z,98741.91
2023-02-01T05:22:20.107Z,98757.13
2023-02-01T05:27:24.399Z,98753.28
2023-02-01T05:32:27.509Z,98739.94
2023-02-01T05:37:30.578Z,98724.91
2023-02-01T05:42:34.873Z,98738.34
2023-02-01T05:47:37.869Z,98737.63
2023-02-01T05:52:40.796Z,98744.06
2023-02-01T05:57:45.112Z,98728.84
2023-02-01T06:02:48.107Z,98733.69
2023-02-01T06:07:51.667Z,98736.44
2023-02-01T06:12:55.977Z,98728.75
2023-02-01T06:17:58.907Z,98737.19
2023-02-01T06:23:01.770Z,98725.81
2023-02-01T06:28:07.081Z,98718.13
2023-02-01T06:33:09.935Z,98729.19
2023-02-01T06:38:13.448Z,98719.63
2023-02-01T06:43:17.680Z,98732.25
2023-02-01T06:48:20.630Z,98737.63
2023-02-01T06:53:23.554Z,98729.56
2023-02-01T06:58:30.525Z,98719.56
2023-02-01T07:03:33.571Z,98720.78
2023-02-01T07:08:38.559Z,98709.44
2023-02-01T07:13:42.937Z,98704.25
2023-02-01T07:18:46.463Z,98692.59
2023-02-01T07:23:49.332Z,98715.03
2023-02-01T07:28:53.631Z,98692.22
2023-02-01T07:33:58.567Z,98692.75
2023-02-01T07:39:01.426Z,98688.53
2023-02-01T07:44:06.126Z,98680.25
2023-02-01T07:49:09.141Z,98676.53
2023-02-01T07:54:12.022Z,98681.94
2023-02-01T07:59:16.988Z,98672.63
2023-02-01T08:04:20.017Z,98686.22
2023-02-01T08:09:22.950Z,98655.28
2023-02-01T08:14:27.268Z,98658.78
2023-02-01T08:19:30.178Z,98666.03
2023-02-01T08:24:33.085Z,98653.78
2023-02-01T08:29:37.332Z,98635.25
2023-02-01T08:34:40.195Z,98629.63
2023-02-01T08:39:46.787Z,98626.38
2023-02-01T08:44:52.675Z,98637.03
2023-02-01T08:49:55.677Z,98641.31
2023-02-01T08:54:58.700Z,98630.56
2023-02-01T09:00:03.394Z,98624.41
2023-02-01T09:05:06.987Z,98644.25
2023-02-01T09:10:10.979Z,98623.75
2023-02-01T09:15:15.205Z,98640.31
2023-02-01T09:20:19.851Z,98647.00
2023-02-01T09:25:23.040Z,98645.34
2023-02-01T09:30:29.186Z,98651.72
2023-02-01T09:35:33.334Z,98649.41
2023-02-01T09:40:37.225Z,98657.44
2023-02-01T09:45:49.739Z,98668.19
2023-02-01T09:50:57.027Z,98669.28
2023-02-01T09:56:07.348Z,98680.69
2023-02-01T10:01:19.453Z,98674.06
2023-02-01T10:06:38.852Z,98687.31
2023-02-01T10:11:55.487Z,98693.06
2023-02-01T10:17:09.518Z,98705.16
2023-02-01T10:22:22.349Z,98700.84
2023-02-01T10:27:35.006Z,98715.06
2023-02-01T10:32:43.377Z,98710.22
2023-02-01T10:37:47.480Z,98713.22
2023-02-01T10:43:00.357Z,98695.03
2023-02-01T10:48:05.625Z,98700.50
2023-02-01T10:53:14.348Z,98708.38
2023-02-01T10:58:19.466Z,98707.41
2023-02-01T11:03:41.235Z,98713.34
2023-02-01T11:08:47.163Z,98704.50
2023-02-01T11:13:55.510Z,98722.06
2023-02-01T11:19:00.418Z,98706.66
2023-02-01T11:24:05.150Z,98716.59
2023-02-01T11:29:18.593Z,98711.50
2023-02-01T11:34:27.589Z,98693.75
2023-02-01T11:39:32.618Z,98703.41
2023-02-01T11:44:38.031Z,98684.97
2023-02-01T11:49:42.335Z,98682.78
2023-02-01T11:55:01.157Z,98688.31
2023-02-01T12:00:18.710Z,98664.41
2023-02-01T12:05:29.736Z,98664.97
2023-02-01T12:10:46.996Z,98661.25
2023-02-01T12:15:59.221Z,98664.41
2023-02-01T12:21:11.391Z,98652.16
2023-02-01T12:26:37.475Z,98658.19
2023-02-01T12:32:07.751Z,98650.56
2023-02-01T12:37:24.287Z,98650.50
2023-02-01T12:42:31.668Z,98648.41
2023-02-01T12:47:40.449Z,98652.59
2023-02-01T12:52:48.319Z,98661.09
2023-02-01T12:57:54.285Z,98644.75
2023-02-01T13:03:03.176Z,98646.28
2023-02-01T13:08:10.956Z,98635.25
2023-02-01T13:13:19.564Z,98626.66
2023-02-01T13:18:27.347Z,98633.38
2023-02-01T13:23:33.970Z,98633.91
2023-02-01T13:28:45.050Z,98633.50
2023-02-01T13:34:06.765Z,98624.84
2023-02-01T13:39:45.991Z,98616.22
2023-02-01T13:44:52.378Z,98603.56
2023-02-01T13:49:58.430Z,98596.94
2023-02-01T13:55:26.291Z,98599.91
2023-02-01T14:00:33.353Z,98596.53
2023-02-01T14:06:05.374Z,98587.88
2023-02-01T14:11:42.021Z,98593.72
2023-02-01T14:16:45.946Z,98594.91
2023-02-01T14:21:50.972Z,98591.13
2023-02-01T14:26:56.737Z,98613.91
2023-02-01T14:32:07.161Z,98590.22
2023-02-01T14:37:12.598Z,98566.03
2023-02-01T14:42:26.764Z,98573.63
2023-02-01T14:47:35.095Z,98590.94
2023-02-01T14:52:43.791Z,98567.53
2023-02-01T14:57:51.972Z,98585.31
2023-02-01T15:02:57.117Z,98575.91
2023-02-01T15:08:06.272Z,98565.31
2023-02-01T15:13:21.177Z,98575.47
2023-02-01T15:18:24.033Z,98563.97
2023-02-01T15:23:27.206Z,98551.91
2023-02-01T15:28:31.660Z,98533.72
2023-02-01T15:33:34.689Z,98530.03
2023-02-01T15:38:42.176Z,98529.44
2023-02-01T15:44:04.670Z,98506.88
2023-02-01T15:49:21.723Z,98495.25
2023-02-01T15:54:29.759Z,98485.22
2023-02-01T15:59:43.376Z,98491.19
2023-02-01T16:04:51.911Z,98511.09
2023-02-01T16:09:57.073Z,98503.06
2023-02-01T16:15:01.432Z,98491.78
2023-02-01T16:20:04.447Z,98447.50
2023-02-01T16:25:08.423Z,98446.53
2023-02-01T16:30:13.435Z,98441.88
2023-02-01T16:35:25.051Z,98431.06
2023-02-01T16:40:28.142Z,98439.13
2023-02-01T16:45:32.449Z,98448.22
2023-02-01T16:50:35.612Z,98452.00
2023-02-01T16:55:38.543Z,98448.47
2023-02-01T17:00:42.921Z,98480.84
2023-02-01T17:05:48.170Z,98575.38
2023-02-01T17:10:51.073Z,98617.94
2023-02-01T17:15:59.255Z,98583.97
2023-02-01T17:21:03.717Z,98549.00
2023-02-01T17:26:06.780Z,98544.31
2023-02-01T17:31:14.191Z,98551.47
2023-02-01T17:36:19.485Z,98538.03
2023-02-01T17:41:22.448Z,98558.59
2023-02-01T17:46:27.395Z,98565.84
2023-02-01T17:51:31.898Z,98581.84
2023-02-01T17:56:34.934Z,98581.97
2023-02-01T18:01:40.862Z,98609.34
2023-02-01T18:06:43.989Z,98622.59
2023-02-01T18:11:49.205Z,98616.84
2023-02-01T18:16:53.504Z,98617.41
2023-02-01T18:21:57.875Z,98607.06
2023-02-01T18:27:01.079Z,98612.59
2023-02-01T18:32:05.735Z,98622.66
2023-02-01T18:37:08.666Z,98620.22
2023-02-01T18:42:11.963Z,98622.34
2023-02-01T18:47:16.301Z,98628.81
2023-02-01T18:52:19.157Z,98633.38
2023-02-01T18:57:23.010Z,98618.31
2023-02-01T19:02:27.752Z,98617.41
2023-02-01T19:07:30.707Z,98618.53
2023-02-01T19:12:35.596Z,98627.59
2023-02-01T19:17:41.034Z,98622.44
2023-02-01T19:22:44.012Z,98628.03
2023-02-01T19:27:47.118Z,98619.13
2023-02-01T19:32:52.690Z,98626.84
2023-02-01T19:37:56.361Z,98629.72
2023-02-01T19:42:59.259Z,98634.56
2023-02-01T19:48:05.879Z,98634.81
2023-02-01T19:53:08.884Z,98630.09
2023-02-01T19:58:11.755Z,98637.00
2023-02-01T20:03:15.249Z,98629.28
2023-02-01T20:08:18.155Z,98628.13
2023-02-01T20:13:21.330Z,98623.41
2023-02-01T20:18:25.594Z,98647.13
2023-02-01T20:23:28.785Z,98647.19
2023-02-01T20:28:33.621Z,98659.00
2023-02-01T20:33:38.251Z,98672.88
2023-02-01T20:38:41.179Z,98682.31
2023-02-01T20:43:44.019Z,98687.06
2023-02-01T20:48:50.108Z,98692.72
2023-02-01T20:53:54.848Z,98683.59
2023-02-01T20:59:03.051Z,98696.22
2023-02-01T21:04:07.498Z,98688.47
2023-02-01T21:09:10.413Z,98685.19
2023-02-01T21:14:13.714Z,98699.16
2023-02-01T21:19:19.378Z,98696.13
2023-02-01T21:24:22.397Z,98701.63
2023-02-01T21:29:25.338Z,98690.78
2023-02-01T21:34:29.660Z,98700.06
2023-02-01T21:39:32.629Z,98689.38
2023-02-01T21:44:35.642Z,98709.22
2023-02-01T21:49:39.909Z,98709.38
2023-02-01T21:54:43.206Z,98705.22
2023-02-01T21:59:46.094Z,98711.56
2023-02-01T22:04:50.503Z,98700.84
2023-02-01T22:09:53.546Z,98713.78
2023-02-01T22:14:56.463Z,98716.72
2023-02-01T22:20:00.770Z,98718.81
2023-02-01T22:25:04.512Z,98712.50
2023-02-01T22:30:08.440Z,98721.47
2023-02-01T22:35:12.882Z,98707.72
2023-02-01T22:40:15.962Z,98712.41
2023-02-01T22:45:18.859Z,98713.69
2023-02-01T22:50:23.183Z,98720.16
2023-02-01T22:55:26.237Z,98702.50
2023-02-01T23:00:29.526Z,98709.66
2023-02-01T23:05:33.809Z,98710.44
2023-02-01T23:10:37.243Z,98706.41
2023-02-01T23:15:40.592Z,98701.78
2023-02-01T23:20:44.915Z,98693.38
2023-02-01T23:25:51.147Z,98696.59
2023-02-01T23:30:54.190Z,98698.91
2023-02-01T23:36:00.745Z,98705.03
2023-02-01T23:41:05.348Z,98707.16
2023-02-01T23:46:08.353Z,98707.25
2023-02-01T23:51:12.988Z,98704.56
2023-02-01T23:56:21.540Z,98725.91
